sensor_id;sensor_type;location;lat;lon;timestamp;pressure;altitude;pressure_sealevel;temperature;humidity
85374;BME280;75779;48.466;8.412;2024-01-15T19:32:39;92174.63;;;22.67;29.47
85374;BME280;75779;48.466;8.412;2024-01-15T19:48:40;92202.47;;;-3.72;66.06
85374;BME280;75779;48.466;8.412;2024-01-15T19:51:07;92214.53;;;-4.50;70.81
85374;BME280;75779;48.466;8.412;2024-01-15T19:53:33;92221.00;;;-4.82;73.32
85374;BME280;75779;48.466;8.412;2024-01-15T19:56:00;92231.63;;;-5.06;75.56
85374;BME280;75779;48.466;8.412;2024-01-15T19:58:27;92187.13;;;-5.10;76.61
85374;BME280;75779;48.466;8.412;2024-01-15T20:00:54;92204.81;;;-5.13;78.20
85374;BME280;75779;48.466;8.412;2024-01-15T20:03:20;92214.06;;;-5.18;78.69
85374;BME280;75779;48.466;8.412;2024-01-15T20:05:48;92210.84;;;-5.24;79.03
85374;BME280;75779;48.466;8.412;2024-01-15T20:08:16;92214.16;;;-5.25;79.38
85374;BME280;75779;48.466;8.412;2024-01-15T20:10:43;92212.72;;;-5.26;79.19
85374;BME280;75779;48.466;8.412;2024-01-15T20:13:09;92223.19;;;-5.25;79.37
85374;BME280;75779;48.466;8.412;2024-01-15T20:15:36;92220.41;;;-5.25;80.40
85374;BME280;75779;48.466;8.412;2024-01-15T20:18:04;92232.00;;;-5.26;79.88
85374;BME280;75779;48.466;8.412;2024-01-15T20:20:31;92242.81;;;-5.21;79.33
85374;BME280;75779;48.466;8.412;2024-01-15T20:22:59;92239.56;;;-5.27;79.73
85374;BME280;75779;48.466;8.412;2024-01-15T20:25:26;92240.78;;;-5.20;78.49
85374;BME280;75779;48.466;8.412;2024-01-15T20:27:53;92245.13;;;-5.35;79.55
85374;BME280;75779;48.466;8.412;2024-01-15T20:30:19;92257.91;;;-5.22;79.32
85374;BME280;75779;48.466;8.412;2024-01-15T20:32:47;92254.25;;;-5.24;79.96
85374;BME280;75779;48.466;8.412;2024-01-15T20:35:13;92258.06;;;-5.20;79.85
85374;BME280;75779;48.466;8.412;2024-01-15T20:37:40;92255.94;;;-5.29;78.83
85374;BME280;75779;48.466;8.412;2024-01-15T20:40:09;92256.75;;;-5.19;79.38
85374;BME280;75779;48.466;8.412;2024-01-15T20:42:36;92257.81;;;-5.32;79.57
85374;BME280;75779;48.466;8.412;2024-01-15T20:45:03;92267.47;;;-5.23;79.98
85374;BME280;75779;48.466;8.412;2024-01-15T20:47:31;92281.28;;;-5.23;80.07
85374;BME280;75779;48.466;8.412;2024-01-15T20:49:58;92272.84;;;-5.25;80.03
85374;BME280;75779;48.466;8.412;2024-01-15T20:52:24;92284.59;;;-5.24;80.47
85374;BME280;75779;48.466;8.412;2024-01-15T20:54:51;92252.28;;;-5.49;80.20
85374;BME280;75779;48.466;8.412;2024-01-15T20:57:19;92286.22;;;-5.21;80.46
85374;BME280;75779;48.466;8.412;2024-01-15T20:59:46;92288.25;;;-5.22;80.06
85374;BME280;75779;48.466;8.412;2024-01-15T21:02:13;92299.19;;;-5.14;80.30
85374;BME280;75779;48.466;8.412;2024-01-15T21:04:40;92286.28;;;-5.29;81.34
85374;BME280;75779;48.466;8.412;2024-01-15T21:07:06;92299.69;;;-5.25;81.12
85374;BME280;75779;48.466;8.412;2024-01-15T21:09:33;92305.03;;;-5.27;81.21
85374;BME280;75779;48.466;8.412;2024-01-15T21:12:02;92305.59;;;-5.29;82.09
85374;BME280;75779;48.466;8.412;2024-01-15T21:14:30;92306.00;;;-5.33;82.27
85374;BME280;75779;48.466;8.412;2024-01-15T21:16:58;92296.34;;;-5.41;82.31
85374;BME280;75779;48.466;8.412;2024-01-15T21:19:24;92298.88;;;-5.36;82.20
85374;BME280;75779;48.466;8.412;2024-01-15T21:21:51;92299.00;;;-5.34;82.40
85374;BME280;75779;48.466;8.412;2024-01-15T21:24:17;92299.84;;;-5.41;82.49
85374;BME280;75779;48.466;8.412;2024-01-15T21:26:47;92312.16;;;-5.42;82.99
85374;BME280;75779;48.466;8.412;2024-01-15T21:29:14;92308.66;;;-5.42;82.96
85374;BME280;75779;48.466;8.412;2024-01-15T21:31:42;92307.22;;;-5.43;82.48
85374;BME280;75779;48.466;8.412;2024-01-15T21:34:08;92293.31;;;-5.53;82.45
85374;BME280;75779;48.466;8.412;2024-01-15T21:36:36;92306.31;;;-5.46;82.85
85374;BME280;75779;48.466;8.412;2024-01-15T21:39:03;92302.09;;;-5.47;82.99
85374;BME280;75779;48.466;8.412;2024-01-15T21:41:29;92312.56;;;-5.45;82.78
85374;BME280;75779;48.466;8.412;2024-01-15T21:43:56;92316.03;;;-5.45;82.69
85374;BME280;75779;48.466;8.412;2024-01-15T21:46:24;92322.84;;;-5.46;82.69
85374;BME280;75779;48.466;8.412;2024-01-15T21:48:53;92329.84;;;-5.45;82.72
85374;BME280;75779;48.466;8.412;2024-01-15T21:51:19;92323.41;;;-5.47;82.29
85374;BME280;75779;48.466;8.412;2024-01-15T21:53:46;92313.94;;;-5.54;81.78
85374;BME280;75779;48.466;8.412;2024-01-15T21:56:12;92324.88;;;-5.46;82.46
85374;BME280;75779;48.466;8.412;2024-01-15T21:58:39;92316.84;;;-5.52;82.43
85374;BME280;75779;48.466;8.412;2024-01-15T22:01:05;92335.34;;;-5.45;82.30
85374;BME280;75779;48.466;8.412;2024-01-15T22:03:33;92328.94;;;-5.47;83.33
85374;BME280;75779;48.466;8.412;2024-01-15T22:06:02;92333.88;;;-5.46;82.41
85374;BME280;75779;48.466;8.412;2024-01-15T22:08:29;92331.84;;;-5.45;81.75
85374;BME280;75779;48.466;8.412;2024-01-15T22:10:56;92338.28;;;-5.43;82.08
85374;BME280;75779;48.466;8.412;2024-01-15T22:13:22;92316.28;;;-5.50;81.45
85374;BME280;75779;48.466;8.412;2024-01-15T22:15:49;92330.16;;;-5.41;82.04
85374;BME280;75779;48.466;8.412;2024-01-15T22:18:16;92337.31;;;-5.38;81.66
85374;BME280;75779;48.466;8.412;2024-01-15T22:20:42;92349.09;;;-5.37;81.41
85374;BME280;75779;48.466;8.412;2024-01-15T22:23:10;92358.81;;;-5.36;81.43
85374;BME280;75779;48.466;8.412;2024-01-15T22:25:37;92365.22;;;-5.34;81.34
85374;BME280;75779;48.466;8.412;2024-01-15T22:28:03;92359.03;;;-5.42;81.42
85374;BME280;75779;48.466;8.412;2024-01-15T22:30:32;92373.66;;;-5.32;81.39
85374;BME280;75779;48.466;8.412;2024-01-15T22:32:58;92378.28;;;-5.34;81.18
85374;BME280;75779;48.466;8.412;2024-01-15T22:35:25;92374.31;;;-5.41;81.22
85374;BME280;75779;48.466;8.412;2024-01-15T22:37:51;92376.31;;;-5.41;81.77
85374;BME280;75779;48.466;8.412;2024-01-15T22:40:19;92357.97;;;-5.46;81.80
85374;BME280;75779;48.466;8.412;2024-01-15T22:42:46;92381.03;;;-5.34;81.56
85374;BME280;75779;48.466;8.412;2024-01-15T22:45:13;92383.78;;;-5.34;81.34
85374;BME280;75779;48.466;8.412;2024-01-15T22:47:39;92388.94;;;-5.31;81.52
85374;BME280;75779;48.466;8.412;2024-01-15T22:50:07;92388.38;;;-5.29;81.51
85374;BME280;75779;48.466;8.412;2024-01-15T22:52:33;92387.28;;;-5.34;80.98
85374;BME280;75779;48.466;8.412;2024-01-15T22:55:00;92397.38;;;-5.28;80.38
85374;BME280;75779;48.466;8.412;2024-01-15T22:57:28;92388.53;;;-5.27;80.10
85374;BME280;75779;48.466;8.412;2024-01-15T22:59:54;92396.63;;;-5.29;80.85
85374;BME280;75779;48.466;8.412;2024-01-15T23:02:21;92385.69;;;-5.37;81.04
85374;BME280;75779;48.466;8.412;2024-01-15T23:04:48;92390.78;;;-5.33;80.13
85374;BME280;75779;48.466;8.412;2024-01-15T23:07:15;92394.06;;;-5.27;80.55
85374;BME280;75779;48.466;8.412;2024-01-15T23:09:41;92389.66;;;-5.30;80.83
85374;BME280;75779;48.466;8.412;2024-01-15T23:12:08;92400.31;;;-5.26;80.47
85374;BME280;75779;48.466;8.412;2024-01-15T23:14:36;92382.13;;;-5.29;80.22
85374;BME280;75779;48.466;8.412;2024-01-15T23:17:03;92391.13;;;-5.29;80.22
85374;BME280;75779;48.466;8.412;2024-01-15T23:19:29;92396.63;;;-5.29;81.07
85374;BME280;75779;48.466;8.412;2024-01-15T23:21:56;92393.88;;;-5.29;81.09
85374;BME280;75779;48.466;8.412;2024-01-15T23:24:22;92401.81;;;-5.33;80.55
85374;BME280;75779;48.466;8.412;2024-01-15T23:26:49;92385.72;;;-5.44;80.93
85374;BME280;75779;48.466;8.412;2024-01-15T23:29:16;92398.66;;;-5.29;80.80
85374;BME280;75779;48.466;8.412;2024-01-15T23:31:44;92398.19;;;-5.36;80.86
85374;BME280;75779;48.466;8.412;2024-01-15T23:34:10;92417.81;;;-5.32;81.04
85374;BME280;75779;48.466;8.412;2024-01-15T23:36:37;92416.91;;;-5.34;80.41
85374;BME280;75779;48.466;8.412;2024-01-15T23:39:03;92408.47;;;-5.36;80.76
85374;BME280;75779;48.466;8.412;2024-01-15T23:41:33;92410.66;;;-5.35;80.45
85374;BME280;75779;48.466;8.412;2024-01-15T23:44:01;92408.47;;;-5.36;80.28
85374;BME280;75779;48.466;8.412;2024-01-15T23:46:29;92408.06;;;-5.33;80.36
85374;BME280;75779;48.466;8.412;2024-01-15T23:48:57;92411.25;;;-5.36;80.74
85374;BME280;75779;48.466;8.412;2024-01-15T23:51:24;92412.13;;;-5.34;80.45
85374;BME280;75779;48.466;8.412;2024-01-15T23:53:51;92413.03;;;-5.31;80.78
85374;BME280;75779;48.466;8.412;2024-01-15T23:56:17;92420.56;;;-5.32;80.07
85374;BME280;75779;48.466;8.412;2024-01-15T23:58:44;92414.00;;;-5.36;79.90
